createdAt,value
2022-12-28T00:01:19.829Z,4.30
2022-12-28T00:03:50.226Z,4.30
2022-12-28T00:06:19.001Z,4.20
2022-12-28T00:08:47.144Z,4.20
2022-12-28T00:11:30.229Z,4.10
2022-12-28T00:14:03.334Z,4.10
2022-12-28T00:16:33.292Z,4.10
2022-12-28T00:19:04.529Z,4.00
2022-12-28T00:21:33.291Z,4.00
2022-12-28T00:24:02.518Z,4.00
2022-12-28T00:26:32.857Z,4.00
2022-12-28T00:29:05.199Z,4.00
2022-12-28T00:31:33.890Z,4.00
2022-12-28T00:34:03.870Z,4.00
2022-12-28T00:37:08.702Z,3.90
2022-12-28T00:39:21.333Z,3.90
2022-12-28T00:41:49.439Z,3.90
2022-12-28T00:44:17.460Z,3.90
2022-12-28T00:46:45.467Z,3.80
2022-12-28T00:49:14.759Z,3.70
2022-12-28T00:51:42.723Z,3.60
2022-12-28T00:54:10.805Z,3.60
2022-12-28T00:56:40.935Z,3.50
2022-12-28T00:59:08.991Z,3.40
2022-12-28T01:01:37.229Z,3.30
2022-12-28T01:04:05.723Z,3.30
2022-12-28T01:06:34.988Z,3.20
2022-12-28T01:09:03.089Z,3.10
2022-12-28T01:11:32.019Z,3.10
2022-12-28T01:14:01.649Z,3.10
2022-12-28T01:16:32.279Z,3.00
2022-12-28T01:19:02.147Z,2.90
2022-12-28T01:21:32.784Z,2.90
2022-12-28T01:24:04.421Z,2.80
2022-12-28T01:26:32.402Z,2.70
2022-12-28T01:29:00.686Z,2.70
2022-12-28T01:31:28.877Z,2.70
2022-12-28T01:33:57.230Z,2.70
2022-12-28T01:36:27.586Z,2.60
2022-12-28T01:38:57.241Z,2.60
2022-12-28T01:41:28.479Z,2.50
2022-12-28T01:44:34.004Z,2.50
2022-12-28T01:47:05.775Z,2.40
2022-12-28T01:49:38.035Z,2.30
2022-12-28T01:52:09.554Z,2.30
2022-12-28T01:54:42.748Z,2.20
2022-12-28T01:57:12.425Z,2.10
2022-12-28T01:59:43.926Z,2.10
2022-12-28T02:02:14.015Z,2.10
2022-12-28T02:04:42.187Z,2.00
2022-12-28T02:07:10.759Z,2.00
2022-12-28T02:09:40.878Z,2.00
2022-12-28T02:12:13.590Z,2.00
2022-12-28T02:14:43.249Z,2.00
2022-12-28T02:17:12.945Z,2.10
2022-12-28T02:19:45.676Z,2.00
2022-12-28T02:22:43.470Z,2.00
2022-12-28T02:25:34.547Z,2.00
2022-12-28T02:28:16.084Z,2.00
2022-12-28T02:30:53.952Z,1.90
2022-12-28T02:33:28.620Z,1.90
2022-12-28T02:36:00.396Z,2.00
2022-12-28T02:38:35.754Z,1.90
2022-12-28T02:41:09.164Z,1.90
2022-12-28T02:43:37.879Z,1.90
2022-12-28T02:46:29.736Z,1.90
2022-12-28T02:49:29.714Z,1.80
2022-12-28T02:52:06.236Z,1.80
2022-12-28T02:55:11.828Z,1.80
2022-12-28T02:58:04.635Z,1.80
2022-12-28T03:00:42.815Z,1.80
2022-12-28T03:03:22.456Z,1.80
2022-12-28T03:06:19.316Z,1.70
2022-12-28T03:08:54.740Z,1.70
2022-12-28T03:11:29.432Z,1.70
2022-12-28T03:14:03.766Z,1.70
2022-12-28T03:16:59.338Z,1.70
2022-12-28T03:19:51.110Z,1.70
2022-12-28T03:22:37.502Z,1.60
2022-12-28T03:25:28.808Z,1.60
2022-12-28T03:28:16.490Z,1.60
2022-12-28T03:31:06.640Z,1.60
2022-12-28T03:33:36.526Z,1.60
2022-12-28T03:36:11.592Z,1.60
2022-12-28T03:38:50.647Z,1.70
2022-12-28T03:41:27.864Z,1.70
2022-12-28T03:43:59.631Z,1.70
2022-12-28T03:46:30.808Z,1.70
2022-12-28T03:48:59.955Z,1.80
2022-12-28T03:51:31.616Z,1.70
2022-12-28T03:53:59.641Z,1.80
2022-12-28T03:56:29.283Z,1.80
2022-12-28T03:58:57.687Z,1.80
2022-12-28T04:01:25.788Z,1.80
2022-12-28T04:03:53.833Z,1.80
2022-12-28T04:06:21.736Z,1.90
2022-12-28T04:08:51.163Z,1.90
2022-12-28T04:11:19.115Z,1.90
2022-12-28T04:13:47.049Z,2.00
2022-12-28T04:16:15.738Z,2.00
2022-12-28T04:18:44.078Z,2.00
2022-12-28T04:21:13.488Z,2.10
2022-12-28T04:23:41.501Z,2.10
2022-12-28T04:26:12.894Z,2.10
2022-12-28T04:28:41.724Z,2.10
2022-12-28T04:31:12.559Z,2.20
2022-12-28T04:33:41.269Z,2.20
2022-12-28T04:36:12.234Z,2.20
2022-12-28T04:38:41.285Z,2.20
2022-12-28T04:41:11.785Z,2.30
2022-12-28T04:43:40.262Z,2.30
2022-12-28T04:46:11.349Z,2.30
2022-12-28T04:48:39.680Z,2.30
2022-12-28T04:51:08.916Z,2.30
2022-12-28T04:53:40.179Z,2.30
2022-12-28T04:56:10.927Z,2.30
2022-12-28T04:58:39.427Z,2.30
2022-12-28T05:01:08.652Z,2.30
2022-12-28T05:03:37.242Z,2.30
2022-12-28T05:06:07.599Z,2.30
2022-12-28T05:08:36.967Z,2.30
2022-12-28T05:11:06.848Z,2.20
2022-12-28T05:13:36.378Z,2.20
2022-12-28T05:16:04.930Z,2.20
2022-12-28T05:18:33.221Z,2.20
2022-12-28T05:21:01.650Z,2.10
2022-12-28T05:23:30.840Z,2.10
2022-12-28T05:25:59.146Z,2.10
2022-12-28T05:28:28.107Z,2.10
2022-12-28T05:31:01.685Z,2.10
2022-12-28T05:33:30.776Z,2.10
2022-12-28T05:35:59.068Z,2.10
2022-12-28T05:38:26.968Z,2.10
2022-12-28T05:40:54.925Z,2.10
2022-12-28T05:43:23.014Z,2.10
2022-12-28T05:45:50.927Z,2.10
2022-12-28T05:48:20.174Z,2.10
2022-12-28T05:50:48.091Z,2.20
2022-12-28T05:53:16.020Z,2.20
2022-12-28T05:55:43.955Z,2.20
2022-12-28T05:58:12.003Z,2.20
2022-12-28T06:00:39.960Z,2.20
2022-12-28T06:03:07.970Z,2.20
2022-12-28T06:05:37.333Z,2.20
2022-12-28T06:08:05.567Z,2.20
2022-12-28T06:10:33.464Z,2.30
2022-12-28T06:13:01.395Z,2.30
2022-12-28T06:15:29.296Z,2.30
2022-12-28T06:17:57.209Z,2.30
2022-12-28T06:20:25.096Z,2.30
2022-12-28T06:22:54.447Z,2.30
2022-12-28T06:25:22.363Z,2.30
2022-12-28T06:27:50.274Z,2.30
2022-12-28T06:30:18.371Z,2.40
2022-12-28T06:32:46.290Z,2.30
2022-12-28T06:35:14.194Z,2.30
2022-12-28T06:37:42.104Z,2.20
2022-12-28T06:40:12.560Z,2.20
2022-12-28T06:42:40.494Z,2.20
2022-12-28T06:45:09.973Z,2.10
2022-12-28T06:47:38.056Z,2.10
2022-12-28T06:50:06.503Z,2.10
2022-12-28T06:52:34.408Z,2.10
2022-12-28T06:55:02.333Z,2.10
2022-12-28T06:57:31.616Z,2.10
2022-12-28T06:59:59.557Z,2.10
2022-12-28T07:02:27.670Z,2.10
2022-12-28T07:04:55.701Z,2.10
2022-12-28T07:07:23.637Z,2.10
2022-12-28T07:09:51.581Z,2.10
2022-12-28T07:12:19.487Z,2.10
2022-12-28T07:14:48.775Z,2.20
2022-12-28T07:17:16.705Z,2.20
2022-12-28T07:19:44.617Z,2.20
2022-12-28T07:22:12.594Z,2.20
2022-12-28T07:24:40.485Z,2.20
2022-12-28T07:27:08.740Z,2.30
2022-12-28T07:29:36.629Z,2.30
2022-12-28T07:32:06.170Z,2.30
2022-12-28T07:34:34.111Z,2.30
2022-12-28T07:37:02.008Z,2.40
2022-12-28T07:39:29.892Z,2.40
2022-12-28T07:41:57.804Z,2.40
2022-12-28T07:44:29.535Z,2.40
2022-12-28T07:46:58.216Z,2.40
2022-12-28T07:49:27.459Z,2.40
2022-12-28T07:51:55.387Z,2.40
2022-12-28T07:54:23.298Z,2.40
2022-12-28T07:56:51.266Z,2.40
2022-12-28T07:59:19.273Z,2.50
2022-12-28T08:01:47.269Z,2.50
2022-12-28T08:04:16.011Z,2.50
2022-12-28T08:06:47.195Z,2.50
2022-12-28T08:09:16.218Z,2.50
2022-12-28T08:11:45.837Z,2.60
2022-12-28T08:14:14.012Z,2.60
2022-12-28T08:16:44.357Z,2.60
2022-12-28T08:19:13.615Z,2.70
2022-12-28T08:21:43.617Z,2.70
2022-12-28T08:24:16.457Z,2.70
2022-12-28T08:26:44.923Z,2.80
2022-12-28T08:29:15.659Z,2.70
2022-12-28T08:31:45.270Z,2.80
2022-12-28T08:34:16.014Z,2.80
2022-12-28T08:36:43.966Z,2.80
2022-12-28T08:39:14.506Z,2.80
2022-12-28T08:41:42.505Z,2.80
2022-12-28T08:44:10.465Z,2.90
2022-12-28T08:46:40.563Z,2.90
2022-12-28T08:49:08.710Z,2.90
2022-12-28T08:51:39.708Z,2.90
2022-12-28T08:54:08.489Z,2.90
2022-12-28T08:56:39.963Z,2.90
2022-12-28T08:59:08.197Z,3.00
2022-12-28T09:01:43.779Z,3.00
2022-12-28T09:04:15.339Z,2.90
2022-12-28T09:06:43.544Z,2.90
2022-12-28T09:09:14.370Z,2.90
2022-12-28T09:11:44.591Z,3.00
2022-12-28T09:14:22.122Z,3.00
2022-12-28T09:16:50.988Z,3.00
2022-12-28T09:19:19.101Z,3.00
2022-12-28T09:21:49.286Z,3.10
2022-12-28T09:24:17.680Z,3.10
2022-12-28T09:26:47.147Z,3.10
2022-12-28T09:29:15.289Z,3.10
2022-12-28T09:31:44.403Z,3.10
2022-12-28T09:37:02.866Z,3.10
2022-12-28T09:39:30.925Z,3.20
2022-12-28T09:42:04.266Z,3.20
2022-12-28T09:44:50.326Z,3.20
2022-12-28T09:47:28.434Z,3.30
2022-12-28T09:50:18.950Z,3.30
2022-12-28T09:52:55.375Z,3.30
2022-12-28T09:55:24.176Z,3.40
2022-12-28T09:57:56.815Z,3.40
2022-12-28T10:00:27.056Z,3.50
2022-12-28T10:02:58.640Z,3.50
2022-12-28T10:05:27.852Z,3.50
2022-12-28T10:07:58.638Z,3.60
2022-12-28T10:10:28.066Z,3.70
2022-12-28T10:13:04.568Z,3.70
2022-12-28T10:15:34.117Z,3.80
2022-12-28T10:18:02.031Z,3.80
2022-12-28T10:20:30.308Z,3.80
2022-12-28T10:22:59.818Z,3.80
2022-12-28T10:25:28.238Z,3.90
2022-12-28T10:27:58.037Z,3.90
2022-12-28T10:30:28.127Z,3.90
2022-12-28T10:33:02.690Z,3.90
2022-12-28T10:35:43.363Z,3.90
2022-12-28T10:38:22.873Z,4.00
2022-12-28T10:41:00.227Z,4.00
2022-12-28T10:43:35.318Z,4.00
2022-12-28T10:46:05.051Z,4.00
2022-12-28T10:48:37.359Z,4.00
2022-12-28T10:51:14.163Z,4.00
2022-12-28T10:53:44.267Z,4.10
2022-12-28T10:56:24.464Z,4.00
2022-12-28T10:58:55.378Z,4.10
2022-12-28T11:01:29.678Z,4.10
2022-12-28T11:04:04.682Z,4.10
2022-12-28T11:06:33.586Z,4.20
2022-12-28T11:09:06.236Z,4.20
2022-12-28T11:11:34.964Z,4.20
2022-12-28T11:14:13.577Z,4.30
2022-12-28T11:16:43.203Z,4.30
2022-12-28T11:19:12.391Z,4.30
2022-12-28T11:21:42.069Z,4.30
2022-12-28T11:24:14.757Z,4.30
2022-12-28T11:26:44.829Z,4.30
2022-12-28T11:29:16.154Z,4.30
2022-12-28T11:31:48.386Z,4.40
2022-12-28T11:34:20.853Z,4.40
2022-12-28T11:36:50.008Z,4.40
2022-12-28T11:39:48.518Z,4.40
2022-12-28T11:42:58.268Z,4.40
2022-12-28T11:45:55.943Z,4.40
2022-12-28T11:48:50.888Z,4.40
2022-12-28T11:51:21.418Z,4.50
2022-12-28T11:53:59.061Z,4.60
2022-12-28T11:56:29.068Z,4.60
2022-12-28T11:59:22.741Z,4.60
2022-12-28T12:01:57.264Z,4.60
2022-12-28T12:04:37.411Z,4.60
2022-12-28T12:07:43.728Z,4.60
2022-12-28T12:10:36.580Z,4.60
2022-12-28T12:13:44.666Z,4.60
2022-12-28T12:16:30.925Z,4.60
2022-12-28T12:19:02.376Z,4.50
2022-12-28T12:21:34.461Z,4.50
2022-12-28T12:24:11.168Z,4.50
2022-12-28T12:26:45.129Z,4.50
2022-12-28T12:29:16.792Z,4.40
2022-12-28T12:31:48.553Z,4.40
2022-12-28T12:34:24.918Z,4.40
2022-12-28T12:37:24.058Z,4.40
2022-12-28T12:40:13.180Z,4.40
2022-12-28T12:42:55.583Z,4.30
2022-12-28T12:45:33.757Z,4.30
2022-12-28T12:48:19.056Z,4.30
2022-12-28T12:51:12.741Z,4.30
2022-12-28T12:53:53.027Z,4.30
2022-12-28T12:56:35.087Z,4.30
2022-12-28T12:59:24.237Z,4.30
2022-12-28T13:01:59.894Z,4.30
2022-12-28T13:04:30.654Z,4.30
2022-12-28T13:07:02.612Z,4.40
2022-12-28T13:09:33.880Z,4.40
2022-12-28T13:12:03.222Z,4.40
2022-12-28T13:14:31.387Z,4.40
2022-12-28T13:17:01.557Z,4.40
2022-12-28T13:19:30.480Z,4.40
2022-12-28T13:22:00.054Z,4.40
2022-12-28T13:24:29.952Z,4.40
2022-12-28T13:27:00.139Z,4.40
2022-12-28T13:29:30.106Z,4.40
2022-12-28T13:31:58.216Z,4.50
2022-12-28T13:34:28.840Z,4.50
2022-12-28T13:36:59.625Z,4.50
2022-12-28T13:39:28.939Z,4.50
2022-12-28T13:41:59.776Z,4.50
2022-12-28T13:44:40.162Z,4.50
2022-12-28T13:47:13.526Z,4.60
2022-12-28T13:49:45.521Z,4.60
2022-12-28T13:52:20.189Z,4.60
2022-12-28T13:54:52.745Z,4.70
2022-12-28T14:00:12.271Z,4.70
2022-12-28T14:02:42.500Z,4.70
2022-12-28T14:05:17.665Z,4.70
2022-12-28T14:07:48.364Z,4.60
2022-12-28T14:10:17.112Z,4.80
2022-12-28T14:12:46.180Z,4.80
2022-12-28T14:15:15.013Z,4.80
2022-12-28T14:17:44.072Z,4.80
2022-12-28T14:20:12.834Z,4.90
2022-12-28T14:22:42.302Z,4.80
2022-12-28T14:25:13.748Z,4.90
2022-12-28T14:27:44.408Z,4.90
2022-12-28T14:30:23.740Z,4.90
2022-12-28T14:32:52.130Z,4.90
2022-12-28T14:35:23.350Z,4.90
2022-12-28T14:37:54.429Z,4.90
2022-12-28T14:40:31.226Z,4.90
2022-12-28T14:43:01.424Z,4.90
2022-12-28T14:46:07.010Z,4.90
2022-12-28T14:48:37.787Z,5.00
2022-12-28T14:51:07.601Z,5.00
2022-12-28T14:53:35.825Z,5.00
2022-12-28T14:56:08.133Z,5.00
2022-12-28T14:58:49.192Z,5.00
2022-12-28T15:01:20.889Z,5.00
2022-12-28T15:03:51.015Z,4.90
2022-12-28T15:06:20.016Z,5.00
2022-12-28T15:08:49.833Z,4.80
2022-12-28T15:11:20.306Z,4.90
2022-12-28T15:13:48.685Z,4.90
2022-12-28T15:16:17.846Z,5.00
2022-12-28T15:18:46.158Z,5.00
2022-12-28T15:21:15.302Z,5.00
2022-12-28T15:23:43.243Z,5.00
2022-12-28T15:26:13.042Z,5.10
2022-12-28T15:28:42.577Z,5.10
2022-12-28T15:31:13.728Z,5.00
2022-12-28T15:33:42.013Z,5.10
2022-12-28T15:36:17.383Z,5.10
2022-12-28T15:38:46.497Z,5.10
2022-12-28T15:41:32.336Z,5.10
2022-12-28T15:44:01.806Z,5.10
2022-12-28T15:46:29.778Z,5.10
2022-12-28T15:48:57.781Z,5.10
2022-12-28T15:51:25.843Z,5.10
2022-12-28T15:53:53.792Z,5.10
2022-12-28T15:56:23.466Z,5.10
2022-12-28T15:58:54.577Z,5.10
2022-12-28T16:01:25.391Z,5.00
2022-12-28T16:03:54.784Z,5.00
2022-12-28T16:06:24.076Z,5.00
2022-12-28T16:08:54.290Z,5.10
2022-12-28T16:11:23.138Z,5.00
2022-12-28T16:13:53.225Z,5.10
2022-12-28T16:16:23.509Z,5.10
2022-12-28T16:18:51.695Z,5.10
2022-12-28T16:21:19.619Z,5.10
2022-12-28T16:23:50.078Z,5.10
2022-12-28T16:26:18.084Z,5.10
2022-12-28T16:28:46.158Z,5.00
2022-12-28T16:31:27.041Z,5.00
2022-12-28T16:33:55.511Z,5.00
2022-12-28T16:36:24.286Z,5.00
2022-12-28T16:38:53.144Z,5.00
2022-12-28T16:41:22.820Z,4.90
2022-12-28T16:43:51.381Z,5.00
2022-12-28T16:46:20.009Z,4.90
2022-12-28T16:48:49.355Z,4.90
2022-12-28T16:51:17.297Z,5.00
2022-12-28T16:53:45.216Z,5.00
2022-12-28T16:56:13.130Z,5.00
2022-12-28T16:58:44.933Z,4.90
2022-12-28T17:01:15.605Z,4.90
2022-12-28T17:03:43.704Z,4.90
2022-12-28T17:06:16.367Z,4.90
2022-12-28T17:08:44.325Z,4.90
2022-12-28T17:11:13.327Z,4.90
2022-12-28T17:13:41.703Z,5.00
2022-12-28T17:16:09.854Z,5.00
2022-12-28T17:18:37.868Z,4.90
2022-12-28T17:21:07.542Z,5.00
2022-12-28T17:23:38.261Z,5.00
2022-12-28T17:26:06.358Z,5.00
2022-12-28T17:28:34.379Z,5.00
2022-12-28T17:31:07.533Z,5.00
2022-12-28T17:33:39.697Z,5.00
2022-12-28T17:36:08.853Z,5.00
2022-12-28T17:38:38.292Z,5.00
2022-12-28T17:41:11.180Z,5.00
2022-12-28T17:43:39.496Z,5.10
2022-12-28T17:46:07.631Z,5.00
2022-12-28T17:48:35.576Z,5.10
2022-12-28T17:51:11.188Z,5.00
2022-12-28T17:53:41.787Z,5.10
2022-12-28T17:56:12.603Z,5.10
2022-12-28T17:58:40.939Z,5.10
2022-12-28T18:01:09.004Z,5.10
2022-12-28T18:03:37.395Z,5.10
2022-12-28T18:06:05.686Z,5.10
2022-12-28T18:08:34.051Z,5.10
2022-12-28T18:11:03.682Z,5.10
2022-12-28T18:13:31.928Z,5.10
2022-12-28T18:15:59.880Z,5.10
2022-12-28T18:18:27.837Z,5.10
2022-12-28T18:20:59.644Z,5.10
2022-12-28T18:23:28.728Z,5.20
2022-12-28T18:26:04.196Z,5.20
2022-12-28T18:28:32.244Z,5.20
2022-12-28T18:31:02.353Z,5.20
2022-12-28T18:33:30.978Z,5.20
2022-12-28T18:35:59.578Z,5.20
2022-12-28T18:38:27.582Z,5.20
2022-12-28T18:40:58.117Z,5.20
2022-12-28T18:43:27.750Z,4.90
2022-12-28T18:45:58.483Z,5.30
2022-12-28T18:48:27.853Z,5.40
2022-12-28T18:50:56.854Z,5.80
2022-12-28T18:53:26.121Z,5.20
2022-12-28T18:55:58.603Z,5.40
2022-12-28T18:58:29.248Z,5.60
2022-12-28T19:03:31.711Z,5.30
2022-12-28T19:06:02.803Z,5.10
2022-12-28T19:08:32.403Z,5.20
2022-12-28T19:11:00.862Z,5.20
2022-12-28T19:13:34.283Z,5.30
2022-12-28T19:16:02.386Z,5.30
2022-12-28T19:18:30.696Z,5.30
2022-12-28T19:20:59.192Z,5.40
2022-12-28T19:23:27.457Z,5.40
2022-12-28T19:25:59.611Z,5.30
2022-12-28T19:28:29.051Z,5.30
2022-12-28T19:31:02.662Z,5.30
2022-12-28T19:33:32.833Z,5.30
2022-12-28T19:36:00.910Z,5.40
2022-12-28T19:38:29.157Z,5.40
2022-12-28T19:40:57.488Z,5.40
2022-12-28T19:43:25.457Z,5.40
2022-12-28T19:46:01.618Z,5.70
2022-12-28T19:48:29.674Z,5.00
2022-12-28T19:50:57.760Z,5.40
2022-12-28T19:53:25.677Z,5.50
2022-12-28T19:55:58.324Z,5.40
2022-12-28T19:58:26.643Z,5.40
2022-12-28T20:00:56.184Z,5.40
2022-12-28T20:03:24.354Z,5.40
2022-12-28T20:05:52.367Z,5.50
2022-12-28T20:08:20.280Z,5.50
2022-12-28T20:10:56.131Z,5.50
2022-12-28T20:13:24.350Z,5.50
2022-12-28T20:15:52.580Z,5.60
2022-12-28T20:18:21.916Z,5.60
2022-12-28T20:21:18.617Z,5.60
2022-12-28T20:23:38.021Z,5.60
2022-12-28T20:26:06.353Z,5.70
2022-12-28T20:28:34.583Z,5.60
2022-12-28T20:31:03.440Z,5.70
2022-12-28T20:33:34.549Z,5.70
2022-12-28T20:36:04.274Z,5.70
2022-12-28T20:38:32.410Z,5.70
2022-12-28T20:41:08.111Z,5.80
2022-12-28T20:43:36.138Z,5.80
2022-12-28T20:46:04.513Z,5.70
2022-12-28T20:48:33.819Z,5.80
2022-12-28T20:51:03.545Z,5.80
2022-12-28T20:53:31.452Z,5.80
2022-12-28T20:56:08.505Z,5.90
2022-12-28T20:58:36.725Z,5.80
2022-12-28T21:01:05.276Z,5.80
2022-12-28T21:03:34.678Z,5.90
2022-12-28T21:06:02.756Z,5.90
2022-12-28T21:08:31.345Z,5.90
2022-12-28T21:10:59.464Z,5.90
2022-12-28T21:13:27.607Z,5.90
2022-12-28T21:15:55.640Z,5.90
2022-12-28T21:18:23.912Z,5.90
2022-12-28T21:20:57.291Z,5.90
2022-12-28T21:23:25.587Z,6.10
2022-12-28T21:25:53.568Z,5.90
2022-12-28T21:28:21.532Z,5.90
2022-12-28T21:30:54.443Z,5.90
2022-12-28T21:33:23.776Z,5.90
2022-12-28T21:36:00.884Z,5.90
2022-12-28T21:38:29.572Z,5.90
2022-12-28T21:40:58.948Z,5.90
2022-12-28T21:43:27.213Z,5.90
2022-12-28T21:46:02.275Z,5.90
2022-12-28T21:48:32.861Z,6.00
2022-12-28T21:51:31.374Z,6.00
2022-12-28T21:54:00.513Z,6.00
2022-12-28T21:56:28.752Z,6.00
2022-12-28T21:58:56.816Z,6.00
2022-12-28T22:01:42.622Z,6.00
2022-12-28T22:04:30.633Z,6.00
2022-12-28T22:07:00.304Z,6.00
2022-12-28T22:09:45.911Z,6.00
2022-12-28T22:12:32.467Z,6.00
2022-12-28T22:15:19.192Z,6.00
2022-12-28T22:17:47.328Z,6.00
2022-12-28T22:20:16.720Z,6.00
2022-12-28T22:22:46.069Z,6.00
2022-12-28T22:25:14.807Z,6.00
2022-12-28T22:27:43.051Z,6.00
2022-12-28T22:30:13.115Z,6.10
2022-12-28T22:32:41.116Z,6.00
2022-12-28T22:35:10.149Z,6.10
2022-12-28T22:37:38.372Z,6.10
2022-12-28T22:40:08.844Z,6.10
2022-12-28T22:42:42.180Z,6.10
2022-12-28T22:45:11.431Z,6.10
2022-12-28T22:47:39.737Z,6.10
2022-12-28T22:50:09.995Z,6.10
2022-12-28T22:52:37.974Z,6.10
2022-12-28T22:55:08.715Z,6.10
2022-12-28T22:57:37.634Z,6.10
2022-12-28T23:00:07.914Z,6.10
2022-12-28T23:02:36.033Z,6.10
2022-12-28T23:05:04.434Z,6.20
2022-12-28T23:07:32.634Z,6.20
2022-12-28T23:10:00.599Z,6.20
2022-12-28T23:12:30.916Z,6.20
2022-12-28T23:15:19.060Z,6.20
2022-12-28T23:17:47.913Z,6.20
2022-12-28T23:20:33.728Z,6.10
2022-12-28T23:23:27.688Z,6.10
2022-12-28T23:26:13.429Z,6.00
2022-12-28T23:28:42.816Z,6.00
2022-12-28T23:31:10.813Z,5.90
2022-12-28T23:33:38.794Z,5.90
2022-12-28T23:36:07.419Z,5.90
2022-12-28T23:38:35.344Z,5.80
2022-12-28T23:41:32.470Z,5.80
2022-12-28T23:44:01.813Z,5.90
2022-12-28T23:46:29.857Z,5.80
2022-12-28T23:48:57.847Z,5.80
2022-12-28T23:51:25.808Z,5.80
2022-12-28T23:53:53.691Z,5.70
2022-12-28T23:56:21.766Z,5.80
2022-12-28T23:58:50.768Z,5.70
